Time;durP1;ratioP1;P1;durP2;ratioP2;P2;SDS_P1;SDS_P2;PMS_P1;PMS_P2;Temp;Humidity;BMP_temperature;BMP_pressure;BME280_temperature;BME280_humidity;BME280_pressure;Samples;Min_cycle;Max_cycle;Signal;HPM_P1;HPM_P2
2022/06/28 00:00:36;;;;;;;1.60;1.50;;;24.90;99.90;;;;;;5222604;28;20043;-61
2022/06/28 00:03:08;;;;;;;1.85;1.73;;;24.30;99.90;;;;;;5210022;28;20040;-59
2022/06/28 00:05:42;;;;;;;1.40;1.30;;;24.10;99.90;;;;;;5220603;28;20134;-59
2022/06/28 00:08:17;;;;;;;;;;;24.20;99.90;;;;;;5211484;28;20338;-60
2022/06/28 00:10:49;;;;;;;2.30;1.77;;;24.30;99.90;;;;;;5218624;28;19915;-61
2022/06/28 00:13:21;;;;;;;3.85;2.00;;;24.40;99.90;;;;;;5204258;28;20025;-60
2022/06/28 00:16:06;;;;;;;2.08;1.58;;;24.40;99.90;;;;;;5217659;28;20244;-60
2022/06/28 00:18:45;;;;;;;1.85;1.73;;;24.40;99.90;;;;;;5220900;28;20164;-60
2022/06/28 00:21:18;;;;;;;1.77;1.65;;;24.30;99.90;;;;;;5217843;28;20036;-62
2022/06/28 00:23:52;;;;;;;6.00;1.92;;;23.90;99.90;;;;;;5208821;28;20029;-61
2022/06/28 00:26:24;;;;;;;3.83;2.00;;;23.50;99.90;;;;;;5216976;28;20033;-61
2022/06/28 00:29:03;;;;;;;2.17;1.98;;;23.30;99.90;;;;;;5213554;28;20104;-60
2022/06/28 00:31:38;;;;;;;2.17;1.92;;;23.20;99.90;;;;;;5222137;28;20037;-61
2022/06/28 00:34:17;;;;;;;3.20;2.17;;;23.00;99.90;;;;;;5221760;28;20029;-61
2022/06/28 00:36:49;;;;;;;2.28;1.70;;;23.00;99.90;;;;;;5223397;28;20040;-62
2022/06/28 00:39:23;;;;;;;2.08;1.90;;;23.00;99.90;;;;;;5219302;28;20033;-60
2022/06/28 00:41:55;;;;;;;1.90;1.77;;;22.90;99.90;;;;;;5186758;28;20234;-59
2022/06/28 00:44:27;;;;;;;1.85;1.60;;;22.80;99.90;;;;;;5217191;28;20043;-62
2022/06/28 00:46:59;;;;;;;1.60;1.50;;;22.60;99.90;;;;;;5202671;28;20041;-59
2022/06/28 00:49:33;;;;;;;3.38;1.90;;;22.60;99.90;;;;;;5221095;28;20037;-62
2022/06/28 00:52:08;;;;;;;2.28;1.50;;;22.40;99.90;;;;;;5218548;28;20037;-59
2022/06/28 00:54:40;;;;;;;1.75;1.55;;;22.30;99.90;;;;;;5217147;28;20039;-59
2022/06/28 00:57:14;;;;;;;2.13;1.92;;;22.30;99.90;;;;;;5201160;28;20260;-62
2022/06/28 00:59:46;;;;;;;3.50;1.40;;;22.10;99.90;;;;;;5170336;28;20335;-59
2022/06/28 01:02:20;;;;;;;1.95;1.75;;;22.10;99.90;;;;;;5201682;28;20041;-60
2022/06/28 01:04:51;;;;;;;2.08;1.60;;;22.00;99.90;;;;;;5194753;28;20304;-61
2022/06/28 01:07:23;;;;;;;2.72;1.50;;;22.00;99.90;;;;;;5220778;28;20043;-60
2022/06/28 01:10:02;;;;;;;1.67;1.52;;;22.00;99.90;;;;;;5221369;28;20039;-59
2022/06/28 01:12:36;;;;;;;2.72;2.10;;;21.90;99.90;;;;;;5221985;28;20033;-58
2022/06/28 01:15:13;;;;;;;2.10;1.42;;;21.90;99.90;;;;;;5218864;28;20051;-59
2022/06/28 01:17:49;;;;;;;1.60;1.50;;;21.80;99.90;;;;;;5222640;28;20313;-59
2022/06/28 01:20:22;;;;;;;1.52;1.40;;;21.70;99.90;;;;;;5221246;28;20036;-60
2022/06/28 01:22:57;;;;;;;1.63;1.52;;;21.60;99.90;;;;;;5215538;28;20229;-62
2022/06/28 01:25:35;;;;;;;1.80;1.70;;;21.10;99.90;;;;;;5220194;28;20039;-62
2022/06/28 01:28:07;;;;;;;2.47;2.15;;;20.90;99.90;;;;;;5228987;28;20036;-62
2022/06/28 01:30:41;;;;;;;1.70;1.60;;;20.80;99.90;;;;;;5241185;28;20028;-62
2022/06/28 01:33:15;;;;;;;1.73;1.50;;;20.80;99.90;;;;;;5221416;28;20047;-62
2022/06/28 01:35:49;;;;;;;1.70;1.40;;;20.80;99.90;;;;;;5224287;28;20048;-61
2022/06/28 01:38:22;;;;;;;2.42;1.88;;;20.80;99.90;;;;;;5203310;28;20329;-61
2022/06/28 01:40:59;;;;;;;5.18;1.70;;;20.90;99.90;;;;;;5220187;28;20037;-62
2022/06/28 01:43:32;;;;;;;1.92;1.67;;;21.00;99.90;;;;;;5219341;28;20025;-61
2022/06/28 01:46:08;;;;;;;1.50;1.30;;;21.00;99.90;;;;;;5221517;28;20039;-62
2022/06/28 01:48:40;;;;;;;1.70;1.60;;;21.10;99.90;;;;;;5218401;28;20037;-62
2022/06/28 01:51:18;;;;;;;1.75;1.38;;;21.10;99.90;;;;;;5216614;28;20195;-60
2022/06/28 01:53:57;;;;;;;1.20;1.10;;;21.10;99.90;;;;;;5226640;28;20025;-59
2022/06/28 01:56:30;;;;;;;1.30;1.20;;;21.10;99.90;;;;;;5221570;28;20025;-61
2022/06/28 01:59:05;;;;;;;1.38;1.00;;;21.20;99.90;;;;;;5223456;28;20025;-60
2022/06/28 02:01:37;;;;;;;1.20;1.10;;;21.20;99.90;;;;;;5223044;28;20025;-61
2022/06/28 02:04:23;;;;;;;1.83;1.30;;;21.30;99.90;;;;;;5220202;28;20051;-61
2022/06/28 02:07:01;;;;;;;1.60;1.20;;;21.40;99.90;;;;;;5174047;28;20050;-61
2022/06/28 02:09:37;;;;;;;1.35;1.25;;;21.60;99.90;;;;;;5179223;28;20046;-61
2022/06/28 02:12:08;;;;;;;1.25;1.15;;;21.60;99.90;;;;;;5179131;28;20030;-59
2022/06/28 02:14:40;;;;;;;1.10;1.00;;;21.60;99.90;;;;;;5181990;28;20036;-58
2022/06/28 02:17:17;;;;;;;1.48;1.30;;;21.70;99.90;;;;;;5200542;28;20307;-59
2022/06/28 02:19:49;;;;;;;1.20;1.10;;;21.80;99.90;;;;;;5197876;28;20029;-62
2022/06/28 02:22:23;;;;;;;2.88;1.45;;;21.60;99.90;;;;;;5199645;28;20035;-62
2022/06/28 02:24:58;;;;;;;1.20;1.10;;;21.30;99.90;;;;;;5198657;28;20036;-61
2022/06/28 02:27:32;;;;;;;;;;;20.90;99.90;;;;;;5195350;28;20229;-61
2022/06/28 02:30:07;;;;;;;1.17;1.08;;;20.70;99.90;;;;;;5223117;28;19913;-60
2022/06/28 02:32:41;;;;;;;3.83;2.00;;;20.60;99.90;;;;;;5223427;28;20028;-59
2022/06/28 02:40:53;;;;;;;1.15;1.02;;;20.80;99.90;;;;;;5202352;28;20032;-60
2022/06/28 02:43:30;;;;;;;1.38;1.27;;;21.00;99.90;;;;;;5215141;28;20035;-62
2022/06/28 02:46:07;;;;;;;1.40;1.30;;;21.00;99.90;;;;;;5220377;28;20025;-63
2022/06/28 02:48:38;;;;;;;2.67;1.58;;;21.20;99.90;;;;;;5197391;28;20219;-63
2022/06/28 02:51:10;;;;;;;1.58;1.35;;;21.10;99.90;;;;;;5195141;28;20037;-64
2022/06/28 02:53:42;;;;;;;1.60;1.50;;;21.00;99.90;;;;;;5214307;28;20025;-68
2022/06/28 02:56:15;;;;;;;1.67;1.58;;;20.80;99.90;;;;;;5181295;28;20218;-64
2022/06/28 02:58:52;;;;;;;1.83;1.58;;;20.50;99.90;;;;;;5198999;28;20059;-67
2022/06/28 03:01:27;;;;;;;2.22;1.92;;;20.40;99.90;;;;;;5196910;28;20033;-64
2022/06/28 03:03:59;;;;;;;2.25;1.80;;;20.30;99.90;;;;;;5197407;28;20029;-67
2022/06/28 03:06:32;;;;;;;1.98;1.55;;;20.10;99.90;;;;;;5217305;28;20254;-68
2022/06/28 03:09:06;;;;;;;5.10;1.87;;;20.00;99.90;;;;;;5202279;28;20319;-66
2022/06/28 03:11:45;;;;;;;1.70;1.60;;;19.90;99.90;;;;;;5197455;28;20218;-64
2022/06/28 03:14:19;;;;;;;4.38;1.70;;;19.80;99.90;;;;;;5180821;28;20315;-63
2022/06/28 03:16:59;;;;;;;1.35;1.25;;;19.70;99.90;;;;;;5197049;28;20037;-62
2022/06/28 03:19:30;;;;;;;4.90;1.90;;;19.60;99.90;;;;;;5197419;28;20373;-62
2022/06/28 03:22:10;;;;;;;1.75;1.60;;;19.60;99.90;;;;;;5201815;28;20037;-62
2022/06/28 03:24:46;;;;;;;1.80;1.70;;;19.60;99.90;;;;;;5187355;28;20262;-63
2022/06/28 03:27:20;;;;;;;2.47;1.90;;;19.60;99.90;;;;;;5201067;28;20179;-62
2022/06/28 03:29:52;;;;;;;2.10;1.90;;;19.60;99.90;;;;;;5218888;28;20045;-63
2022/06/28 03:32:24;;;;;;;2.00;1.80;;;19.70;99.90;;;;;;5219353;28;20025;-63
2022/06/28 03:34:55;;;;;;;1.95;1.70;;;19.80;99.90;;;;;;5190611;28;20047;-63
2022/06/28 03:37:27;;;;;;;1.58;1.48;;;20.00;99.90;;;;;;5206115;28;20031;-63
2022/06/28 03:39:58;;;;;;;2.33;1.30;;;20.10;99.90;;;;;;5208308;28;20350;-62
2022/06/28 03:42:31;;;;;;;4.32;1.77;;;20.20;99.90;;;;;;5205942;28;20230;-63
2022/06/28 03:45:04;;;;;;;1.85;1.65;;;20.20;99.90;;;;;;5226154;28;20045;-63
2022/06/28 03:47:44;;;;;;;1.70;1.50;;;20.20;99.90;;;;;;5205600;28;20231;-62
2022/06/28 03:50:16;;;;;;;1.35;1.17;;;20.30;99.90;;;;;;5206277;28;20025;-63
2022/06/28 03:52:47;;;;;;;1.95;1.35;;;20.30;99.90;;;;;;5210890;28;20031;-63
2022/06/28 03:55:22;;;;;;;1.55;1.45;;;20.30;99.90;;;;;;5211605;28;20055;-63
2022/06/28 03:57:53;;;;;;;;;;;20.40;99.90;;;;;;5189341;28;20041;-63
2022/06/28 04:00:25;;;;;;;3.40;1.40;;;20.50;99.90;;;;;;5204490;28;20182;-63
2022/06/28 04:03:03;;;;;;;1.50;1.40;;;20.60;99.90;;;;;;5205709;28;20216;-62
2022/06/28 04:05:44;;;;;;;1.38;1.27;;;20.60;99.90;;;;;;5166366;28;20045;-62
2022/06/28 04:08:16;;;;;;;2.13;1.27;;;20.70;99.90;;;;;;5210348;28;20025;-64
2022/06/28 04:10:48;;;;;;;1.58;1.30;;;20.80;99.90;;;;;;5200158;28;20035;-61
2022/06/28 04:13:25;;;;;;;1.30;1.20;;;20.80;99.90;;;;;;5195235;28;20057;-62
2022/06/28 04:16:02;;;;;;;2.65;1.42;;;20.80;99.90;;;;;;5199589;28;20033;-63
2022/06/28 04:18:40;;;;;;;1.77;1.08;;;20.90;99.90;;;;;;5220013;28;20024;-62
2022/06/28 04:21:16;;;;;;;1.20;1.10;;;20.90;99.90;;;;;;5198173;28;20053;-61
2022/06/28 04:23:49;;;;;;;0.93;0.93;;;21.00;99.90;;;;;;5217158;28;20027;-62
2022/06/28 04:26:23;;;;;;;1.10;0.90;;;21.00;99.90;;;;;;5205717;28;20043;-62
2022/06/28 04:28:57;;;;;;;2.38;1.65;;;21.10;99.90;;;;;;5203130;28;20036;-62
2022/06/28 04:31:34;;;;;;;1.25;1.15;;;21.10;99.90;;;;;;5196710;28;20038;-62
2022/06/28 04:34:05;;;;;;;1.77;1.10;;;21.20;99.90;;;;;;5184044;28;20041;-62
2022/06/28 04:36:37;;;;;;;1.13;1.02;;;21.20;99.90;;;;;;5207387;28;20036;-62
2022/06/28 04:39:13;;;;;;;1.15;1.05;;;21.30;99.90;;;;;;5205287;28;20339;-62
2022/06/28 04:41:47;;;;;;;0.75;0.70;;;21.40;99.90;;;;;;5187866;28;20021;-62
2022/06/28 04:44:24;;;;;;;0.60;0.60;;;21.30;99.90;;;;;;5198497;28;20041;-63
2022/06/28 04:46:57;;;;;;;1.50;1.00;;;21.50;99.90;;;;;;5192284;28;20279;-62
2022/06/28 04:49:33;;;;;;;1.58;1.48;;;21.50;99.90;;;;;;5200640;28;20056;-63
2022/06/28 04:52:13;;;;;;;5.70;1.02;;;21.40;99.90;;;;;;5182965;28;20294;-63
2022/06/28 04:54:52;;;;;;;0.60;0.60;;;21.30;99.90;;;;;;5199180;28;20030;-62
2022/06/28 04:57:23;;;;;;;3.38;0.90;;;21.30;99.90;;;;;;5210484;28;20041;-63
2022/06/28 04:59:55;;;;;;;0.90;0.90;;;21.10;99.90;;;;;;5183325;28;20045;-62
2022/06/28 05:02:31;;;;;;;0.93;0.93;;;21.00;99.90;;;;;;5164688;28;20037;-62
2022/06/28 05:05:06;;;;;;;1.27;1.10;;;21.10;99.90;;;;;;5182323;28;20352;-62
2022/06/28 05:07:38;;;;;;;0.68;0.68;;;21.20;99.90;;;;;;5241786;28;20328;-62
2022/06/28 05:10:09;;;;;;;2.17;0.85;;;21.20;99.90;;;;;;5214024;28;20041;-62
2022/06/28 05:12:43;;;;;;;0.85;0.85;;;21.30;99.90;;;;;;5218078;28;20063;-62
2022/06/28 05:15:15;;;;;;;0.80;0.80;;;21.20;99.90;;;;;;5222325;28;20055;-61
2022/06/28 05:17:46;;;;;;;3.10;1.00;;;21.40;99.90;;;;;;5215187;28;20601;-62
2022/06/28 05:20:18;;;;;;;1.20;0.90;;;21.50;99.90;;;;;;5218728;28;20037;-62
2022/06/28 05:22:52;;;;;;;2.05;1.08;;;21.60;99.90;;;;;;5227270;28;20045;-62
2022/06/28 05:25:25;;;;;;;0.75;0.75;;;21.60;99.90;;;;;;5229330;28;20035;-61
2022/06/28 05:27:56;;;;;;;1.55;1.15;;;21.70;99.90;;;;;;5212671;28;20471;-61
2022/06/28 05:30:33;;;;;;;2.13;0.80;;;21.80;99.90;;;;;;5243445;28;20021;-62
2022/06/28 05:33:05;;;;;;;0.90;0.90;;;21.80;99.90;;;;;;5242547;28;20028;-62
2022/06/28 05:35:42;;;;;;;1.85;0.73;;;21.80;99.90;;;;;;5235048;28;20115;-62
2022/06/28 05:38:19;;;;;;;1.00;0.90;;;21.90;99.90;;;;;;5220878;28;20042;-60
2022/06/28 05:40:51;;;;;;;2.08;1.38;;;21.80;99.90;;;;;;5220803;28;20028;-60
2022/06/28 05:43:25;;;;;;;1.20;1.10;;;21.80;99.90;;;;;;5219578;28;20031;-62
2022/06/28 05:45:59;;;;;;;1.00;0.90;;;21.70;99.90;;;;;;5203393;28;20041;-62
2022/06/28 05:48:31;;;;;;;0.90;0.70;;;22.00;99.90;;;;;;5219600;28;20051;-62
2022/06/28 05:51:05;;;;;;;0.68;0.68;;;22.20;99.90;;;;;;5220619;28;20055;-62
2022/06/28 05:53:44;;;;;;;0.88;0.85;;;22.60;99.90;;;;;;5234495;28;20030;-62
2022/06/28 05:56:18;;;;;;;0.88;0.85;;;22.50;99.90;;;;;;5239736;28;20330;-62
2022/06/28 05:58:54;;;;;;;1.52;1.10;;;22.40;99.90;;;;;;5241659;28;20020;-62
2022/06/28 06:01:25;;;;;;;0.77;0.70;;;22.60;99.90;;;;;;5200140;28;20043;-61
2022/06/28 06:04:00;;;;;;;1.27;1.17;;;23.10;99.90;;;;;;5208648;28;20206;-61
2022/06/28 06:06:34;;;;;;;2.10;0.90;;;23.10;99.90;;;;;;5194040;28;20414;-63
2022/06/28 06:09:08;;;;;;;1.20;0.90;;;23.10;99.90;;;;;;5222763;28;20025;-63
2022/06/28 06:11:39;;;;;;;1.00;0.90;;;23.20;99.90;;;;;;5220354;28;20047;-62
2022/06/28 06:14:15;;;;;;;1.00;0.68;;;23.30;99.90;;;;;;5221069;28;20039;-62
2022/06/28 06:16:50;;;;;;;0.70;0.70;;;23.50;99.90;;;;;;5217368;28;20051;-63
2022/06/28 06:19:24;;;;;;;0.80;0.80;;;23.80;99.90;;;;;;5221133;28;20067;-63
2022/06/28 06:22:08;;;;;;;3.10;0.80;;;24.10;99.90;;;;;;5204053;28;20267;-62
2022/06/28 06:24:44;;;;;;;0.98;0.88;;;24.20;99.90;;;;;;5202129;28;20051;-62
2022/06/28 06:27:21;;;;;;;1.33;0.80;;;24.20;99.90;;;;;;5204850;28;20364;-61
2022/06/28 06:29:52;;;;;;;1.05;0.95;;;24.50;99.90;;;;;;5226314;28;20032;-64
2022/06/28 06:32:26;;;;;;;0.80;0.70;;;24.90;99.90;;;;;;5217208;28;20040;-61
2022/06/28 06:35:02;;;;;;;0.93;0.85;;;24.80;99.90;;;;;;5218829;28;20025;-62
2022/06/28 06:37:38;;;;;;;1.13;1.02;;;24.50;99.90;;;;;;5212575;28;20306;-62
2022/06/28 06:40:13;;;;;;;1.42;0.80;;;24.30;99.90;;;;;;5217194;28;20283;-62
2022/06/28 06:42:49;;;;;;;1.88;0.75;;;24.10;99.90;;;;;;5219732;28;20039;-61
2022/06/28 06:45:21;;;;;;;1.42;0.90;;;24.20;99.90;;;;;;5217657;28;20048;-62
2022/06/28 06:47:53;;;;;;;1.40;0.90;;;24.40;99.90;;;;;;5218528;28;20032;-62
2022/06/28 06:50:26;;;;;;;0.90;0.90;;;24.50;99.90;;;;;;5201283;28;20349;-62
2022/06/28 06:53:02;;;;;;;0.93;0.90;;;24.20;99.90;;;;;;5220253;28;20250;-62
2022/06/28 06:55:38;;;;;;;1.33;0.80;;;24.10;99.90;;;;;;5232993;28;20272;-62
2022/06/28 06:58:12;;;;;;;1.80;0.93;;;24.30;99.90;;;;;;5234869;28;20029;-61
2022/06/28 07:00:44;;;;;;;1.85;1.00;;;24.30;99.90;;;;;;5220360;28;20225;-62
2022/06/28 07:03:15;;;;;;;0.70;0.70;;;24.60;99.90;;;;;;5201785;28;20076;-62
2022/06/28 07:05:47;;;;;;;1.02;0.90;;;24.80;99.90;;;;;;5208091;28;20076;-61
2022/06/28 07:08:24;;;;;;;2.50;1.00;;;24.90;99.90;;;;;;5207174;28;20059;-62
2022/06/28 07:10:55;;;;;;;1.67;0.98;;;25.30;99.90;;;;;;5208939;28;20049;-63
2022/06/28 07:13:32;;;;;;;1.08;0.98;;;25.70;99.90;;;;;;5217627;28;20017;-61
2022/06/28 07:16:04;;;;;;;1.00;0.80;;;25.50;99.90;;;;;;5216481;28;20250;-61
2022/06/28 07:18:35;;;;;;;1.73;0.98;;;25.00;99.90;;;;;;5200293;28;20039;-61
2022/06/28 07:21:10;;;;;;;0.90;0.80;;;25.40;99.90;;;;;;5216502;28;20021;-63
2022/06/28 07:23:46;;;;;;;;;;;25.50;99.90;;;;;;5217987;28;20175;-60
2022/06/28 07:26:18;;;;;;;0.90;0.90;;;25.10;99.90;;;;;;5218137;28;20181;-62
2022/06/28 07:28:52;;;;;;;1.38;1.27;;;24.80;99.90;;;;;;5202871;28;20039;-61
2022/06/28 07:31:23;;;;;;;1.10;1.00;;;24.50;99.90;;;;;;5217692;28;20309;-63
2022/06/28 07:33:55;;;;;;;0.80;0.80;;;24.70;99.90;;;;;;5216745;28;20033;-62
2022/06/28 07:36:27;;;;;;;1.35;1.10;;;24.60;99.90;;;;;;5215433;28;20213;-61
2022/06/28 07:39:01;;;;;;;1.30;1.05;;;24.80;99.90;;;;;;5216773;28;20353;-60
2022/06/28 07:41:38;;;;;;;1.15;0.90;;;25.20;99.90;;;;;;5200917;28;20029;-61
2022/06/28 07:44:12;;;;;;;1.00;0.90;;;25.30;99.90;;;;;;5215404;28;20031;-59
2022/06/28 07:46:46;;;;;;;1.10;1.00;;;25.20;99.90;;;;;;5217569;28;20020;-61
2022/06/28 07:49:18;;;;;;;0.98;0.90;;;25.00;99.90;;;;;;5200294;28;20033;-61
2022/06/28 07:54:41;;;;;;;1.20;0.70;;;24.80;99.90;;;;;;5218917;28;20021;-60
2022/06/28 07:57:15;;;;;;;1.38;1.08;;;25.10;99.90;;;;;;5218990;28;20033;-58
2022/06/28 07:59:47;;;;;;;0.80;0.80;;;24.90;99.90;;;;;;5200410;28;20037;-61
2022/06/28 08:02:20;;;;;;;1.05;0.90;;;25.20;99.90;;;;;;5216050;28;20192;-62
2022/06/28 08:04:52;;;;;;;1.30;0.88;;;25.10;99.90;;;;;;5196507;28;20347;-62
2022/06/28 08:07:26;;;;;;;0.95;0.90;;;25.30;99.90;;;;;;5185993;28;20341;-62
2022/06/28 08:09:57;;;;;;;1.23;0.70;;;25.50;99.90;;;;;;5213438;28;20048;-61
2022/06/28 08:12:36;;;;;;;1.20;0.82;;;25.50;99.90;;;;;;5197653;28;20200;-59
2022/06/28 08:15:12;;;;;;;1.60;1.30;;;25.40;99.90;;;;;;5202131;28;20022;-61
2022/06/28 08:17:49;;;;;;;1.13;0.80;;;25.60;99.90;;;;;;5204382;28;20022;-59
2022/06/28 08:20:21;;;;;;;3.08;0.80;;;25.50;99.90;;;;;;5189680;28;20144;-59
2022/06/28 08:22:55;;;;;;;2.53;0.88;;;25.80;99.90;;;;;;5198011;28;20225;-62
2022/06/28 08:25:27;;;;;;;;;;;25.90;99.90;;;;;;5200538;28;20043;-59
2022/06/28 08:28:01;;;;;;;0.88;0.80;;;26.40;99.90;;;;;;5216924;28;20227;-61
2022/06/28 08:30:32;;;;;;;1.35;0.80;;;26.20;99.90;;;;;;5210643;28;20221;-59
2022/06/28 08:33:04;;;;;;;1.10;1.00;;;25.90;99.90;;;;;;5211206;28;20237;-60
2022/06/28 08:35:40;;;;;;;2.15;0.88;;;25.90;99.90;;;;;;5213591;28;20033;-61
2022/06/28 08:38:13;;;;;;;1.42;1.00;;;25.90;99.90;;;;;;5210211;28;20362;-59
2022/06/28 08:40:49;;;;;;;1.10;1.00;;;25.80;99.90;;;;;;5205115;28;20041;-59
2022/06/28 08:43:23;;;;;;;0.90;0.90;;;26.10;99.90;;;;;;5215618;28;20026;-60
2022/06/28 08:45:56;;;;;;;0.85;0.80;;;26.20;99.90;;;;;;5216669;28;20278;-59
2022/06/28 08:48:39;;;;;;;1.00;0.82;;;25.90;99.90;;;;;;5216819;28;20037;-61
2022/06/28 08:51:11;;;;;;;0.80;0.80;;;26.10;99.90;;;;;;5194179;28;20044;-59
2022/06/28 08:53:51;;;;;;;1.92;0.93;;;26.10;99.90;;;;;;5212571;28;20064;-62
2022/06/28 08:56:23;;;;;;;1.10;1.00;;;26.10;99.90;;;;;;5217784;28;20041;-58
2022/06/28 08:59:01;;;;;;;1.98;0.82;;;26.50;99.90;;;;;;5203070;28;20036;-62
2022/06/28 09:01:32;;;;;;;4.40;1.25;;;26.50;99.90;;;;;;5202699;28;20025;-62
2022/06/28 09:04:07;;;;;;;1.05;0.75;;;26.30;99.90;;;;;;5217203;28;20044;-59
2022/06/28 09:06:44;;;;;;;1.38;1.00;;;26.40;99.90;;;;;;5206138;28;20041;-61
2022/06/28 09:09:16;;;;;;;5.05;1.08;;;26.50;99.90;;;;;;5223514;28;20210;-58
2022/06/28 09:11:51;;;;;;;1.33;0.95;;;26.30;99.90;;;;;;5204713;28;20021;-60
2022/06/28 09:14:23;;;;;;;1.15;0.95;;;26.20;99.90;;;;;;5223109;28;20044;-59
2022/06/28 09:16:57;;;;;;;1.30;1.00;;;26.70;99.90;;;;;;5225857;28;20041;-60
2022/06/28 09:19:42;;;;;;;1.10;0.98;;;26.50;99.90;;;;;;5222839;28;20211;-60
2022/06/28 09:22:46;;;;;;;1.27;0.82;;;26.30;99.90;;;;;;5238272;28;20318;-60
2022/06/28 09:25:31;;;;;;;1.60;1.48;;;26.60;99.90;;;;;;5154172;28;20236;-60
2022/06/28 09:28:03;;;;;;;1.38;0.88;;;26.80;99.90;;;;;;5155900;28;20263;-61
2022/06/28 09:30:35;;;;;;;1.15;1.05;;;26.70;99.90;;;;;;5162054;28;20164;-60
2022/06/28 09:33:06;;;;;;;1.20;1.10;;;26.80;99.90;;;;;;5157207;28;20278;-61
2022/06/28 09:35:52;;;;;;;1.20;1.10;;;27.10;99.90;;;;;;5162996;28;20046;-59
2022/06/28 09:38:32;;;;;;;2.42;1.30;;;27.20;99.90;;;;;;5164865;28;20045;-60
2022/06/28 09:41:22;;;;;;;1.23;1.13;;;27.40;99.90;;;;;;5147556;28;20324;-60
2022/06/28 09:43:56;;;;;;;1.17;1.08;;;27.20;99.90;;;;;;5166810;28;20392;-60
2022/06/28 09:46:32;;;;;;;2.30;1.33;;;27.30;99.90;;;;;;5140610;28;20026;-59
2022/06/28 09:49:07;;;;;;;1.27;1.17;;;27.50;99.90;;;;;;5141927;28;20034;-60
2022/06/28 09:51:42;;;;;;;2.33;1.15;;;28.00;99.90;;;;;;5140852;28;20071;-62
2022/06/28 09:54:17;;;;;;;1.25;1.15;;;28.60;99.90;;;;;;5133769;28;20317;-60
2022/06/28 09:56:55;;;;;;;1.02;0.90;;;28.10;99.90;;;;;;5137796;28;20265;-60
2022/06/28 09:59:28;;;;;;;1.23;1.13;;;28.10;99.90;;;;;;5153011;28;20034;-59
2022/06/28 10:02:04;;;;;;;1.48;0.98;;;28.00;99.90;;;;;;5217596;28;20710;-62
2022/06/28 10:04:35;;;;;;;1.30;1.20;;;28.10;99.90;;;;;;5206485;28;20049;-63
2022/06/28 10:07:10;;;;;;;1.25;1.15;;;28.10;99.90;;;;;;5194068;28;20017;-61
2022/06/28 10:09:42;;;;;;;1.15;1.08;;;28.00;99.90;;;;;;5201994;28;20041;-60
2022/06/28 10:15:08;;;;;;;1.27;1.08;;;27.80;99.90;;;;;;5199090;28;20344;-60
2022/06/28 10:18:01;;;;;;;0.80;0.80;;;28.00;99.90;;;;;;5200188;28;20041;-60
2022/06/28 10:20:40;;;;;;;1.27;1.10;;;28.70;99.90;;;;;;5198766;28;20029;-62
2022/06/28 10:23:40;;;;;;;1.92;1.10;;;29.60;99.90;;;;;;5209821;28;20323;-61
2022/06/28 10:26:15;;;;;;;1.23;1.13;;;29.30;99.90;;;;;;5202271;28;20222;-60
2022/06/28 10:29:08;;;;;;;;;;;29.10;99.90;;;;;;5216506;28;20075;-59
2022/06/28 10:31:42;;;;;;;1.30;1.20;;;29.60;99.90;;;;;;5199869;28;19927;-62
2022/06/28 10:34:19;;;;;;;1.05;1.05;;;30.60;99.90;;;;;;5202133;28;20032;-62
2022/06/28 10:37:00;;;;;;;1.30;1.20;;;30.10;99.90;;;;;;5193821;28;20037;-62
2022/06/28 10:39:34;;;;;;;4.53;1.40;;;30.40;99.90;;;;;;5202646;28;20545;-62
2022/06/28 10:42:14;;;;;;;1.10;1.08;;;30.30;99.90;;;;;;5194714;28;20045;-60
2022/06/28 10:44:46;;;;;;;1.17;1.08;;;30.40;99.90;;;;;;5198090;28;20031;-63
2022/06/28 10:47:23;;;;;;;2.60;0.88;;;31.00;99.90;;;;;;5204456;28;20044;-61
2022/06/28 10:49:58;;;;;;;1.38;1.27;;;32.40;99.90;;;;;;5197504;28;20251;-60
2022/06/28 10:52:37;;;;;;;1.27;1.17;;;30.60;99.90;;;;;;5199255;28;20306;-60
2022/06/28 10:55:09;;;;;;;1.67;1.25;;;30.30;99.90;;;;;;5198531;28;20502;-61
2022/06/28 10:57:41;;;;;;;0.90;0.90;;;30.50;99.90;;;;;;5200798;28;20195;-61
2022/06/28 11:00:26;;;;;;;1.30;1.20;;;29.70;99.90;;;;;;5199468;28;20051;-62
2022/06/28 11:03:05;;;;;;;2.00;1.55;;;30.00;99.90;;;;;;5199798;28;20188;-61
2022/06/28 11:05:55;;;;;;;1.35;1.23;;;29.60;99.90;;;;;;5181007;28;20067;-60
2022/06/28 11:08:58;;;;;;;1.10;1.05;;;30.60;99.90;;;;;;5209985;28;20234;-61
2022/06/28 11:11:32;;;;;;;2.03;1.13;;;33.10;99.90;;;;;;5202327;28;20204;-60
2022/06/28 11:14:51;;;;;;;2.63;1.20;;;34.40;99.90;;;;;;5207531;28;20038;-61
2022/06/28 11:17:39;;;;;;;1.38;1.27;;;34.50;99.90;;;;;;5203636;28;20026;-63
2022/06/28 11:20:15;;;;;;;1.33;1.23;;;33.80;99.90;;;;;;5196093;28;20280;-61
2022/06/28 11:22:50;;;;;;;1.20;1.10;;;33.30;99.90;;;;;;5203882;28;20350;-60
2022/06/28 11:25:24;;;;;;;2.45;1.38;;;32.80;99.90;;;;;;5189929;28;20032;-63
2022/06/28 11:27:57;;;;;;;;;;;34.00;99.90;;;;;;5213375;28;20037;-60
2022/06/28 11:30:30;;;;;;;1.45;1.35;;;33.40;99.90;;;;;;5206387;28;19915;-61
2022/06/28 11:33:14;;;;;;;2.50;1.40;;;33.70;99.90;;;;;;5201313;28;20055;-63
2022/06/28 11:35:45;;;;;;;3.03;1.20;;;32.30;99.90;;;;;;5202151;28;20336;-62
2022/06/28 11:38:17;;;;;;;1.65;1.55;;;32.80;99.90;;;;;;5201339;28;20287;-62
2022/06/28 11:40:57;;;;;;;1.38;1.27;;;33.10;99.90;;;;;;5206358;28;20030;-61
2022/06/28 11:43:29;;;;;;;1.30;1.20;;;33.20;99.90;;;;;;5189973;28;20253;-62
2022/06/28 11:46:05;;;;;;;3.20;1.45;;;32.80;99.90;;;;;;5206822;28;20176;-61
2022/06/28 11:48:39;;;;;;;1.42;1.33;;;33.20;99.90;;;;;;5204512;28;20036;-62
2022/06/28 11:51:26;;;;;;;1.85;1.20;;;33.00;99.90;;;;;;5189483;28;20033;-62
2022/06/28 11:54:08;;;;;;;1.73;1.40;;;33.60;99.90;;;;;;5198289;28;20037;-63
2022/06/28 11:56:51;;;;;;;4.50;1.70;;;35.20;99.90;;;;;;5216969;28;20356;-63
2022/06/28 11:59:57;;;;;;;1.40;1.30;;;33.70;99.90;;;;;;5203059;28;20337;-62
2022/06/28 12:02:55;;;;;;;2.35;1.58;;;33.80;99.90;;;;;;5218796;28;20033;-60
2022/06/28 12:05:36;;;;;;;2.38;1.40;;;33.80;99.90;;;;;;5212388;28;20475;-59
2022/06/28 12:08:08;;;;;;;1.33;1.23;;;33.20;99.90;;;;;;5186550;28;20233;-63
2022/06/28 12:10:47;;;;;;;1.50;1.38;;;32.60;99.90;;;;;;5203403;28;20131;-63
2022/06/28 12:13:18;;;;;;;1.35;0.98;;;32.30;99.90;;;;;;5182731;28;20034;-63
2022/06/28 12:15:50;;;;;;;1.88;1.58;;;33.20;99.90;;;;;;5184348;28;20210;-61
2022/06/28 12:18:23;;;;;;;2.00;1.20;;;35.30;99.90;;;;;;5213084;28;20234;-61
2022/06/28 12:20:57;;;;;;;2.35;1.42;;;35.60;99.90;;;;;;5189881;28;20315;-61
2022/06/28 12:23:49;;;;;;;1.40;1.20;;;37.40;99.90;;;;;;5212776;28;20052;-61
2022/06/28 12:26:45;;;;;;;1.60;1.02;;;37.70;99.90;;;;;;5201669;28;20055;-63
2022/06/28 12:29:17;;;;;;;1.30;1.20;;;37.30;99.90;;;;;;5236770;28;20041;-62
2022/06/28 12:31:53;;;;;;;1.35;1.13;;;36.90;99.90;;;;;;5224485;28;20199;-61
2022/06/28 12:34:25;;;;;;;0.90;0.90;;;37.40;99.90;;;;;;5232560;28;20025;-64
2022/06/28 12:36:59;;;;;;;0.95;0.95;;;39.10;99.90;;;;;;5211764;28;20037;-61
2022/06/28 12:39:36;;;;;;;2.70;1.52;;;39.60;99.90;;;;;;5212654;28;20033;-62
2022/06/28 12:42:08;;;;;;;1.60;1.17;;;39.20;99.90;;;;;;5209417;28;20040;-61
2022/06/28 12:44:41;;;;;;;2.35;1.58;;;40.00;99.90;;;;;;5212943;28;20035;-60
2022/06/28 12:47:16;;;;;;;1.33;1.20;;;40.80;99.90;;;;;;5213174;28;20044;-61
2022/06/28 12:49:47;;;;;;;2.20;1.25;;;39.30;99.90;;;;;;5198670;28;20029;-60
2022/06/28 12:52:19;;;;;;;1.60;1.20;;;40.30;99.90;;;;;;5219834;28;20029;-60
2022/06/28 12:54:51;;;;;;;1.65;1.48;;;40.00;99.90;;;;;;5235884;28;20030;-61
2022/06/28 12:57:25;;;;;;;1.65;1.50;;;39.20;99.90;;;;;;5235941;28;20049;-61
2022/06/28 13:00:01;;;;;;;1.95;1.25;;;38.80;99.90;;;;;;5236630;28;20031;-59
2022/06/28 13:02:35;;;;;;;2.15;1.50;;;38.20;99.90;;;;;;5236389;28;20210;-60
2022/06/28 13:05:10;;;;;;;3.58;1.27;;;36.50;99.90;;;;;;5219445;28;20048;-60
2022/06/28 13:07:45;;;;;;;1.52;1.42;;;35.00;99.90;;;;;;5197658;28;20337;-62
2022/06/28 13:10:17;;;;;;;2.50;1.60;;;34.10;99.90;;;;;;5223109;28;20183;-59
2022/06/28 13:12:53;;;;;;;1.40;1.30;;;32.60;99.90;;;;;;5224075;28;20041;-61
2022/06/28 13:15:27;;;;;;;2.00;1.17;;;33.00;99.90;;;;;;5226632;28;20091;-60
2022/06/28 13:18:03;;;;;;;3.33;1.17;;;33.80;99.90;;;;;;5224063;28;20051;-59
2022/06/28 13:21:31;;;;;;;1.70;1.60;;;35.80;99.90;;;;;;5213612;28;20024;-59
2022/06/28 13:24:05;;;;;;;4.40;1.10;;;37.20;99.90;;;;;;5221499;28;20025;-60
2022/06/28 13:26:42;;;;;;;3.20;1.25;;;38.10;99.90;;;;;;5217688;28;20040;-61
2022/06/28 13:29:13;;;;;;;1.50;1.10;;;39.20;99.90;;;;;;5222518;28;20032;-60
2022/06/28 13:31:46;;;;;;;0.95;0.95;;;39.20;99.90;;;;;;5220254;28;20341;-61
2022/06/28 13:34:17;;;;;;;1.23;1.05;;;40.60;99.90;;;;;;5206925;28;20017;-61
2022/06/28 13:36:49;;;;;;;1.40;1.30;;;41.40;99.90;;;;;;5221035;28;20209;-62
2022/06/28 13:39:23;;;;;;;1.13;0.98;;;40.40;99.90;;;;;;5231178;28;20329;-62
2022/06/28 13:41:58;;;;;;;2.47;1.45;;;40.00;99.90;;;;;;5221754;28;20029;-63